Latest Weather Observations for Urandangi

IDQ60801

Issued at 4:05 pm EST Thursday 2 October 2014 (issued every 30 minutes, with the page automatically refreshed every 10 minutes)

About weather observations | Map of weather stations | Latest weather observations for QLD | Other Formats
Station Details ID: 037058 Name: URANDANGI AERODROME Lat: -21.60 Lon: 138.37 Height: 178.6 m
Data from the previous 72 hours. | See also: Recent months at Urandangi
Date/Time
EST
Temp
°C
App
Temp
°C
Dew
Point
Rel
Hum
%
Delta-T
°C
Wind Press
QNH
hPa
Press
MSL
hPa
Rain
since 9 am
mm
Dir
 
Spd
km/h
Gust
km/h
Spd
kts
Gust
kts
02/04:00pm 35.8 29.9 -2.0 9 18.3 SSE 19 30 10 16 1013.5 1012.5 0.0
02/03:30pm 36.1 30.7 -1.7 9 18.4 ESE 17 28 9 15 1013.7 1012.7 0.0
02/03:00pm 35.1 30.9 -1.1 10 17.7 SSE 11 24 6 13 1014.1 1013.1 0.0
02/02:30pm 36.0 30.3 -0.4 10 18.1 SSE 19 24 10 13 1014.4 1013.4 0.0
02/02:00pm 35.4 30.3 0.5 11 17.5 SE 17 30 9 16 1015.1 1014.1 0.0
02/01:30pm 35.1 29.9 0.2 11 17.4 ESE 17 30 9 16 1015.6 1014.6 0.0
02/01:00pm 35.8 30.3 0.8 11 17.7 SE 19 33 10 18 1016.1 1015.1 0.0
02/12:30pm 34.9 29.3 1.3 12 17.0 SE 20 30 11 16 1016.6 1015.7 0.0
02/12:00pm 33.7 28.0 0.4 12 16.5 SE 20 33 11 18 1017.2 1016.3 0.0
02/11:30am 32.4 26.1 1.5 14 15.5 SE 24 33 13 18 1017.6 1016.7 0.0
02/11:00am 31.2 24.9 1.5 15 14.8 SE 24 33 13 18 1018.1 1017.1 0.0
02/10:30am 30.1 24.2 1.5 16 14.1 SE 22 32 12 17 1018.4 1017.4 0.0
02/10:00am 28.9 22.6 1.4 17 13.4 SE 24 32 13 17 1018.5 1017.5 0.0
02/09:30am 27.8 21.5 1.3 18 12.8 SE 24 32 13 17 1018.7 1017.7 0.0
02/09:00am 26.3 19.2 1.6 20 11.9 SE 28 37 15 20 1018.6 1017.6 0.0
02/08:30am 25.0 18.4 1.8 22 11.1 SE 26 33 14 18 1018.5 1017.5 0.0
02/08:00am 24.0 18.1 1.6 23 10.6 SSE 22 32 12 17 1018.2 1017.2 0.0
02/07:30am 22.7 17.3 2.2 26 9.7 SSE 20 26 11 14 1017.7 1016.8 0.0
02/07:00am 21.2 17.1 2.0 28 9.0 SSE 13 19 7 10 1017.6 1016.7 0.0
02/06:30am 20.1 15.9 1.5 29 8.6 SSE 13 19 7 10 1017.5 1016.6 0.0
02/06:00am 19.5 15.6 1.0 29 8.4 S 11 15 6 8 1017.2 1016.3 0.0
02/05:30am 19.0 15.7 0.1 28 8.4 SSE 7 9 4 5 1017.0 1016.1 0.0
02/05:00am 20.8 16.7 0.1 25 9.3 E 11 13 6 7 1016.6 1015.7 0.0
02/04:30am 23.2 18.5 0.9 23 10.4 SSE 15 22 8 12 1015.9 1014.9 0.0
02/04:00am 23.8 18.7 0.8 22 10.7 SSE 17 22 9 12 1015.7 1014.7 0.0
02/03:30am 24.5 19.0 0.8 21 11.1 SE 19 26 10 14 1015.5 1014.5 0.0
02/03:00am 25.2 19.6 0.0 19 11.7 SSE 19 24 10 13 1015.4 1014.4 0.0
02/02:30am 25.4 20.2 0.1 19 11.8 SSE 17 22 9 12 1015.4 1014.4 0.0
02/02:00am 26.0 20.4 -0.1 18 12.2 SSE 19 24 10 13 1015.4 1014.4 0.0
02/01:30am 26.3 21.1 0.1 18 12.3 SE 17 22 9 12 1015.5 1014.5 0.0
02/01:00am 26.9 21.4 0.6 18 12.5 SSE 19 24 10 13 1015.6 1014.6 0.0
02/12:30am 26.7 21.5 0.4 18 12.4 SSE 17 24 9 13 1015.5 1014.5 0.0
02/12:00am 26.3 21.9 0.1 18 12.3 SE 13 17 7 9 1015.4 1014.4 0.0
 
Date/Time
EST
Temp
°C
App
Temp
°C
Dew
Point
Rel
Hum
%
Delta-T
°C
Wind Press
QNH
hPa
Press
MSL
hPa
Rain
since 9 am
mm
Dir
 
Spd
km/h
Gust
km/h
Spd
kts
Gust
kts
01/11:30pm 27.7 22.6 0.5 17 13.0 SSE 17 24 9 13 1015.4 1014.4 0.0
01/11:00pm 25.6 21.5 -0.5 18 12.0 SE 11 13 6 7 1015.3 1014.3 0.0
01/10:30pm 26.6 22.8 -0.4 17 12.6 SE 9 11 5 6 1015.1 1014.1 0.0
01/10:00pm 28.3 23.9 0.1 16 13.4 SSE 13 15 7 8 1015.0 1014.0 0.0
01/09:30pm 30.1 25.6 -0.3 14 14.6 SSE 13 17 7 9 1014.8 1013.8 0.0
01/09:00pm 30.5 25.9 -1.0 13 15.0 SSE 13 17 7 9 1014.6 1013.6 0.0
01/08:30pm 30.9 26.7 -0.7 13 15.1 SSE 11 15 6 8 1014.2 1013.2 0.0
01/08:00pm 31.5 26.9 -1.3 12 15.6 SSE 13 15 7 8 1014.0 1013.0 0.0
01/07:30pm 32.3 27.7 -0.7 12 15.9 SSE 13 17 7 9 1013.9 1012.9 0.0
01/07:00pm 33.8 28.9 -0.7 11 16.8 SE 15 22 8 12 1013.6 1012.6 0.0
01/06:30pm 35.2 29.5 -1.0 10 17.7 SSE 19 26 10 14 1013.3 1012.3 0.0
01/06:00pm 35.8 30.9 -0.5 10 18.0 ESE 15 20 8 11 1013.0 1012.0 0.0
01/05:30pm 36.9 32.1 0.3 10 18.5 SE 15 20 8 11 1013.0 1012.0 0.0
01/05:00pm 38.1 32.5 -0.3 9 19.4 ESE 19 33 10 18 1012.9 1011.9 0.0
01/04:30pm 37.9 32.5 1.0 10 19.0 SE 19 26 10 14 1012.9 1011.9 0.0
01/04:00pm 37.4 32.1 -0.8 9 19.1 E 17 28 9 15 1012.9 1011.9 0.0
01/03:30pm 37.8 33.7 -0.5 9 19.2 SSE 11 20 6 11 1013.1 1012.1 0.0
01/03:00pm 37.5 34.3 0.7 10 18.8 E 7 17 4 9 1013.4 1012.4 0.0
01/02:30pm 37.3 34.5 1.9 11 18.4 SE 6 13 3 7 1013.7 1012.7 0.0
01/02:00pm 37.3 34.5 3.1 12 18.1 NNW 7 13 4 7 1014.2 1013.2 0.0
01/01:30pm 36.9 33.5 4.0 13 17.6 SE 11 24 6 13 1014.9 1013.9 0.0
01/01:00pm 37.1 34.1 4.1 13 17.7 N 9 19 5 10 1015.4 1014.4 0.0
01/12:30pm 35.8 33.6 5.1 15 16.6 ENE 6 17 3 9 1016.0 1015.0 0.0
01/12:00pm 35.5 33.6 6.7 17 16.0 NNW 6 15 3 8 1016.7 1015.8 0.0
01/11:30am 34.5 32.4 8.3 20 14.8 WSW 9 17 5 9 1017.2 1016.3 0.0
01/11:00am 33.5 31.6 8.9 22 14.0 N 9 17 5 9 1017.6 1016.7 0.0
01/10:30am 32.6 30.6 10.0 25 13.0 N 11 19 6 10 1017.6 1016.7 0.0
01/10:00am 32.0 30.7 11.2 28 12.2 NW 9 15 5 8 1017.5 1016.6 0.0
01/09:30am 31.0 29.3 12.4 32 11.1 NW 13 19 7 10 1017.3 1016.7 0.0
01/09:00am 28.8 26.6 12.2 35 9.7 NW 15 17 8 9 1017.2 1016.6 0.0
01/08:30am 27.7 25.4 11.7 37 9.3 NNW 15 20 8 11 1017.1 1016.5 0.0
01/08:00am 26.2 24.0 9.5 35 9.2 N 11 13 6 7 1016.8 1016.2 0.0
01/07:30am 23.8 21.8 7.0 34 8.8 NNE 7 11 4 6 1016.3 1015.6 0.0
01/07:00am 20.8 18.3 4.8 35 7.9 N 7 9 4 5 1015.7 1015.0 0.0
01/06:30am 19.9 17.6 4.8 37 7.4 N 6 7 3 4 1015.5 1014.8 0.0
01/06:00am 21.9 19.2 5.8 35 8.1 N 9 11 5 6 1015.0 1014.3 0.0
01/05:30am 22.5 19.5 5.9 34 8.4 N 11 13 6 7 1014.3 1013.6 0.0
01/05:00am 22.3 19.1 5.3 33 8.5 NNE 11 13 6 7 1013.9 1013.2 0.0
01/04:30am 22.8 19.5 4.3 30 9.2 NNE 11 13 6 7 1013.5 1012.8 0.0
01/04:00am 24.4 20.8 5.2 29 9.8 N 13 15 7 8 1013.1 1012.4 0.0
01/03:30am 24.5 20.7 3.8 26 10.3 N 13 15 7 8 1012.9 1012.2 0.0
01/03:00am 24.2 20.1 2.4 24 10.5 NNE 13 15 7 8 1013.0 1012.3 0.0
01/02:30am 25.5 21.0 2.2 22 11.3 NNE 15 17 8 9 1013.2 1012.5 0.0
01/02:00am 25.0 21.1 1.2 21 11.3 NE 11 13 6 7 1013.4 1012.7 0.0
01/01:30am 24.2 20.9 2.4 24 10.5 NE 9 11 5 6 1013.5 1012.8 0.0
01/01:00am 21.9 18.6 0.4 24 9.8 E 7 9 4 5 1013.7 1013.0 0.0
01/12:30am 24.2 20.5 2.4 24 10.5 E 11 13 6 7 1013.8 1013.1 0.0
01/12:00am 23.3 19.8 1.0 23 10.4 ESE 9 9 5 5 1013.9 1013.2 0.0
 
Date/Time
EST
Temp
°C
App
Temp
°C
Dew
Point
Rel
Hum
%
Delta-T
°C
Wind Press
QNH
hPa
Press
MSL
hPa
Rain
since 9 am
mm
Dir
 
Spd
km/h
Gust
km/h
Spd
kts
Gust
kts
30/11:30pm 24.6 21.0 2.7 24 10.7 ESE 11 11 6 6 1013.9 1013.2 0.0
30/11:00pm 25.2 22.1 1.3 21 11.4 E 7 11 4 6 1013.9 1013.2 0.0
30/10:30pm 25.9 22.5 1.9 21 11.6 SE 9 9 5 5 1013.9 1013.2 0.0
30/10:00pm 25.8 22.8 0.5 19 11.9 SSE 6 7 3 4 1013.8 1013.1 0.0
30/09:30pm 25.8 22.8 0.5 19 11.9 SE 6 9 3 5 1013.7 1013.0 0.0
30/09:00pm 26.6 24.6 -0.4 17 12.6 CALM 0 4 0 2 1013.6 1012.9 0.0
30/08:30pm 28.7 25.9 2.1 18 13.2 E 6 7 3 4 1013.3 1012.6 0.0
30/08:00pm 30.1 26.9 0.6 15 14.4 ESE 7 7 4 4 1012.9 1012.2 0.0
30/07:30pm 31.3 27.9 1.6 15 14.8 ESE 9 9 5 5 1012.6 1011.9 0.0
30/07:00pm 33.2 29.8 2.1 14 15.8 ESE 9 11 5 6 1012.3 1011.6 0.0
30/06:30pm 35.7 32.1 3.0 13 17.1 ESE 11 17 6 9 1011.7 1011.1 0.0
30/06:00pm 36.8 32.4 2.8 12 17.9 ESE 15 19 8 10 1011.4 1010.7 0.0
30/05:30pm 37.0 33.8 2.9 12 18.0 SE 9 13 5 7 1011.1 1010.4 0.0
30/05:00pm 37.8 34.7 3.5 12 18.3 S 9 15 5 8 1011.1 1010.4 0.0
30/04:30pm 37.9 35.2 3.6 12 18.4 SSE 7 19 4 10 1011.0 1010.3 0.0
30/04:00pm 38.4 33.9 4.0 12 18.6 SE 17 24 9 13 1011.2 1010.5 0.0
30/03:30pm 37.5 34.9 4.4 13 17.9 E 7 17 4 9 1011.4 1010.7 0.0
30/03:00pm 38.0 35.5 4.8 13 18.1 SSE 7 15 4 8 1011.7 1011.1 0.0
30/02:30pm 37.3 35.3 6.3 15 17.2 W 6 9 3 5 1012.2 1011.5 0.0
30/02:00pm 37.2 35.0 6.3 15 17.2 NW 7 15 4 8 1012.7 1012.0 0.0
30/01:30pm 36.6 34.0 7.6 17 16.4 WNW 11 19 6 10 1013.1 1012.4 0.0
30/01:00pm 36.2 34.6 8.1 18 16.0 NW 6 15 3 8 1013.6 1012.9 0.0
30/12:30pm 35.8 34.5 10.1 21 15.0 N 7 17 4 9 1014.3 1013.6 0.0
30/12:00pm 35.2 33.2 11.6 24 14.1 NNW 13 22 7 12 1015.0 1014.3 0.0
30/11:30am 34.9 32.6 13.1 27 13.3 NNW 17 32 9 17 1015.5 1014.8 0.0
30/11:00am 34.0 31.7 14.0 30 12.3 NW 19 30 10 16 1015.7 1015.0 0.0
30/10:30am 32.8 30.4 14.4 33 11.3 NNW 20 28 11 15 1016.0 1015.3 0.0
30/10:00am 31.5 29.2 14.6 36 10.4 NNW 20 28 11 15 1016.2 1015.5 0.0
30/09:30am 30.7 28.6 15.2 39 9.6 NW 20 28 11 15 1016.3 1015.6 0.0
30/09:00am 29.1 26.6 15.2 42 8.5 NNW 22 30 12 16 1016.3 1015.6 0.0
30/08:30am 27.7 25.8 14.3 43 8.1 NNW 17 26 9 14 1016.3 1015.6 0.0
30/08:00am 26.0 23.4 12.1 42 8.0 N 17 22 9 12 1015.8 1015.1 0.0
30/07:30am 24.3 21.7 9.5 39 8.1 N 13 17 7 9 1015.4 1014.7 0.0
30/07:00am 21.8 18.6 5.3 34 8.3 N 11 13 6 7 1014.9 1014.2 0.0
30/06:30am 20.8 18.2 3.1 31 8.4 NNE 6 7 3 4 1014.7 1014.0 0.0
30/06:00am 22.2 18.7 3.3 29 9.1 N 11 13 6 7 1014.2 1013.5 0.0
30/05:30am 21.9 18.6 4.5 32 8.6 N 11 13 6 7 1013.7 1013.0 0.0
30/05:00am 22.3 19.0 4.8 32 8.7 N 11 13 6 7 1013.3 1012.6 0.0
30/04:30am 22.9 19.3 4.9 31 9.0 N 13 17 7 9 1012.9 1012.2 0.0
30/04:00am 23.5 20.1 4.0 28 9.6 N 11 17 6 9 1012.9 1012.2 0.0
30/03:30am 21.6 17.5 -3.0 19 10.5 N 9 11 5 6 1012.6 1011.9 0.0
30/03:00am 20.6 17.5 -6.1 16 10.6 NNW 2 4 1 2 1012.4 1011.7 0.0
30/02:30am 22.1 18.0 -6.6 14 11.4 N 7 9 4 5 1012.5 1011.8 0.0
30/02:00am 23.0 19.0 -5.9 14 11.8 NNE 7 20 4 11 1012.8 1012.1 0.0
30/01:30am 23.1 18.6 -6.8 13 12.0 NNE 9 13 5 7 1012.9 1012.2 0.0
30/01:00am 22.4 18.4 -7.3 13 11.7 E 6 7 3 4 1012.8 1012.1 0.0
30/12:30am 24.0 20.8 -7.1 12 12.5 E 2 7 1 4 1013.0 1012.3 0.0
30/12:00am 22.6 19.3 -8.2 12 12.0 E 2 4 1 2 1013.1 1012.4 0.0
 
Date/Time
EST
Temp
°C
App
Temp
°C
Dew
Point
Rel
Hum
%
Delta-T
°C
Wind Press
QNH
hPa
Press
MSL
hPa
Rain
since 9 am
mm
Dir
 
Spd
km/h
Gust
km/h
Spd
kts
Gust
kts
29/11:30pm 24.9 20.7 -7.5 11 13.1 ENE 7 9 4 5 1013.1 1012.4 0.0
29/11:00pm 25.7 21.2 -6.9 11 13.4 E 9 11 5 6 1013.2 1012.5 0.0
29/10:30pm 23.8 18.4 -8.4 11 12.6 E 13 15 7 8 1013.2 1012.5 0.0
29/10:00pm 27.3 22.8 -6.9 10 14.3 ESE 9 11 5 6 1013.2 1012.5 0.0
29/09:30pm 26.6 21.3 -7.5 10 14.0 E 13 15 7 8 1013.0 1012.3 0.0
29/09:00pm 25.4 20.5 -7.2 11 13.3 E 11 13 6 7 1012.8 1012.1 0.0
29/08:30pm 27.9 23.9 -5.2 11 14.3 E 7 9 4 5 1012.6 1011.9 0.0
29/08:00pm 29.2 24.8 -5.5 10 15.1 E 9 9 5 5 1012.1 1011.4 0.0
29/07:30pm 30.4 26.7 -4.6 10 15.6 E 6 7 3 4 1011.7 1011.1 0.0
29/07:00pm 32.8 29.1 -4.2 9 16.9 E 6 7 3 4 1011.4 1010.7 0.0
29/06:30pm 34.2 30.5 -4.7 8 17.8 E 6 7 3 4 1011.0 1010.3 0.0
29/06:00pm 36.0 31.5 -3.4 8 18.7 ENE 11 17 6 9 1010.6 1009.9 0.0
29/05:30pm 36.3 32.0 -5.0 7 19.1 ENE 9 17 5 9 1010.6 1009.9 0.0
29/05:00pm 36.9 33.0 -4.5 7 19.4 ENE 7 11 4 6 1010.4 1009.7 0.0
29/04:30pm 37.1 33.4 -4.4 7 19.5 N 6 11 3 6 1010.4 1009.7 0.0

Other Formats:

Comma delimited format used in spreadsheet applications
http://www.bom.gov.au/fwo/IDQ60801/IDQ60801.94344.axf

JavaScript Object Notation format (JSON) in row-major order
http://www.bom.gov.au/fwo/IDQ60801/IDQ60801.94344.json